Time;durP1;ratioP1;P1;durP2;ratioP2;P2;SDS_P1;SDS_P2;PMS_P1;PMS_P2;Temp;Humidity;BMP_temperature;BMP_pressure;BME280_temperature;BME280_humidity;BME280_pressure;Samples;Min_cycle;Max_cycle;Signal;HPM_P1;HPM_P2
2023/04/10 00:01:44;;;;;;;48.85;36.58;;;9.50;86.10;;;;;;5073081;28;20080;-72
2023/04/10 00:04:10;;;;;;;47.47;35.25;;;9.50;86.10;;;;;;5056816;28;20044;-72
2023/04/10 00:06:36;;;;;;;51.00;36.90;;;9.50;86.20;;;;;;5073124;28;20489;-72
2023/04/10 00:09:01;;;;;;;48.10;36.38;;;9.50;86.40;;;;;;5073367;28;20039;-72
2023/04/10 00:11:28;;;;;;;49.65;37.63;;;9.40;86.30;;;;;;5056286;28;20492;-72
2023/04/10 00:13:54;;;;;;;47.15;35.15;;;9.40;86.60;;;;;;5056379;28;20083;-73
2023/04/10 00:16:19;;;;;;;47.55;36.65;;;9.40;86.70;;;;;;5056205;28;20080;-73
2023/04/10 00:18:46;;;;;;;48.65;36.88;;;9.40;86.60;;;;;;5056255;28;20116;-73
2023/04/10 00:21:11;;;;;;;48.47;36.50;;;9.40;86.70;;;;;;5056074;28;20036;-73
2023/04/10 00:23:37;;;;;;;46.05;35.28;;;9.40;86.70;;;;;;5056350;28;20389;-72
2023/04/10 00:26:03;;;;;;;49.50;37.38;;;9.40;86.70;;;;;;5056115;28;20489;-72
2023/04/10 00:28:28;;;;;;;48.83;36.35;;;9.30;86.90;;;;;;5056345;28;20040;-72
2023/04/10 00:30:54;;;;;;;48.25;36.38;;;9.30;87.20;;;;;;5072567;28;20516;-72
2023/04/10 00:33:20;;;;;;;47.10;36.22;;;9.30;87.40;;;;;;5055634;28;20040;-72
2023/04/10 00:35:45;;;;;;;50.33;36.00;;;9.20;87.40;;;;;;5072544;28;20087;-73
2023/04/10 00:38:12;;;;;;;50.75;38.33;;;9.20;87.70;;;;;;5055811;28;20043;-73
2023/04/10 00:40:37;;;;;;;47.58;35.85;;;9.20;87.80;;;;;;5072511;28;20044;-72
2023/04/10 00:43:03;;;;;;;49.67;37.80;;;9.10;88.10;;;;;;5072396;28;20043;-72
2023/04/10 00:45:29;;;;;;;51.10;37.65;;;9.10;88.20;;;;;;5055769;28;20123;-72
2023/04/10 00:47:55;;;;;;;50.90;38.38;;;9.10;88.40;;;;;;5072603;28;20048;-72
2023/04/10 00:50:21;;;;;;;53.85;39.75;;;9.10;88.30;;;;;;5055856;28;20076;-72
2023/04/10 00:52:48;;;;;;;49.15;38.42;;;9.00;88.40;;;;;;5055563;28;20076;-72
2023/04/10 00:55:14;;;;;;;54.97;39.83;;;9.00;88.50;;;;;;5072483;28;20097;-72
2023/04/10 00:57:45;;;;;;;52.25;38.58;;;9.00;88.60;;;;;;5055487;28;20501;-72
2023/04/10 01:00:13;;;;;;;52.45;38.83;;;9.00;88.70;;;;;;5071997;28;20044;-72
2023/04/10 01:02:38;;;;;;;54.35;40.00;;;8.90;88.80;;;;;;5072139;28;20120;-73
2023/04/10 01:05:05;;;;;;;52.92;39.78;;;8.90;89.00;;;;;;5056240;28;20167;-73
2023/04/10 01:07:57;;;;;;;54.25;40.22;;;8.90;89.00;;;;;;5055350;28;20081;-73
2023/04/10 01:10:35;;;;;;;54.53;40.22;;;8.90;89.20;;;;;;5055482;28;20451;-72
2023/04/10 01:13:28;;;;;;;56.45;42.20;;;8.80;89.50;;;;;;5055604;28;20096;-73
2023/04/10 01:16:04;;;;;;;56.97;42.15;;;8.80;89.60;;;;;;5055576;28;20036;-72
2023/04/10 01:18:36;;;;;;;57.03;42.22;;;8.70;89.70;;;;;;5072211;28;20040;-72
2023/04/10 01:21:07;;;;;;;59.58;43.20;;;8.70;89.90;;;;;;5055138;28;20066;-72
2023/04/10 01:24:00;;;;;;;59.92;43.78;;;8.60;89.90;;;;;;5071925;28;20040;-73
2023/04/10 01:26:38;;;;;;;;;;;8.70;90.00;;;;;;5072283;28;20082;-72
2023/04/10 01:29:07;;;;;;;63.60;45.50;;;8.50;90.10;;;;;;5055208;28;19987;-73
2023/04/10 01:31:40;;;;;;;64.30;45.60;;;8.50;90.10;;;;;;5071942;28;20190;-72
2023/04/10 01:34:07;;;;;;;;;;;8.50;90.10;;;;;;5055535;28;20047;-72
2023/04/10 01:36:44;;;;;;;63.13;43.85;;;8.40;90.10;;;;;;5072022;28;19994;-73
2023/04/10 01:39:11;;;;;;;66.10;46.25;;;8.40;90.30;;;;;;5055049;28;20059;-73
2023/04/10 01:41:40;;;;;;;63.20;45.80;;;8.40;90.40;;;;;;5054795;28;20044;-73
2023/04/10 01:44:08;;;;;;;62.55;46.90;;;8.40;90.40;;;;;;5071975;28;20044;-73
2023/04/10 01:46:35;;;;;;;65.63;46.95;;;8.40;90.50;;;;;;5058872;28;20041;-73
2023/04/10 01:49:02;;;;;;;64.78;47.67;;;8.40;90.50;;;;;;5059044;28;20040;-73
2023/04/10 01:51:29;;;;;;;66.30;49.25;;;8.40;90.60;;;;;;5058978;28;20511;-72
2023/04/10 01:53:56;;;;;;;65.95;49.05;;;8.40;90.70;;;;;;5058924;28;20408;-72
2023/04/10 01:56:22;;;;;;;66.43;50.45;;;8.30;90.60;;;;;;5075596;28;20056;-72
2023/04/10 01:58:47;;;;;;;62.75;47.38;;;8.30;90.70;;;;;;5058905;28;20041;-72
2023/04/10 02:01:20;;;;;;;65.30;49.08;;;8.30;90.70;;;;;;5058703;28;20041;-73
2023/04/10 02:03:46;;;;;;;66.25;49.72;;;8.30;90.70;;;;;;5058859;28;20040;-72
2023/04/10 02:06:21;;;;;;;64.90;49.85;;;8.30;90.80;;;;;;5075420;28;20032;-72
2023/04/10 02:08:56;;;;;;;71.80;50.20;;;8.30;90.80;;;;;;5075439;28;20036;-73
2023/04/10 02:11:53;;;;;;;69.10;50.42;;;8.30;90.70;;;;;;5075316;28;20082;-73
2023/04/10 02:14:21;;;;;;;68.22;49.83;;;8.30;90.70;;;;;;5044884;28;20059;-73
2023/04/10 02:16:49;;;;;;;66.85;49.78;;;8.20;90.80;;;;;;5075214;28;20094;-72
2023/04/10 02:19:17;;;;;;;66.43;48.75;;;8.20;90.90;;;;;;5075189;28;20055;-73
2023/04/10 02:21:43;;;;;;;67.28;49.65;;;8.20;90.90;;;;;;5058375;28;20044;-72
2023/04/10 02:24:08;;;;;;;71.45;51.25;;;8.20;90.90;;;;;;5058385;28;20041;-72
2023/04/10 02:26:49;;;;;;;67.22;48.97;;;8.20;90.90;;;;;;5058407;28;20041;-72
2023/04/10 02:29:16;;;;;;;71.45;50.47;;;8.30;90.90;;;;;;5058553;28;20044;-72
2023/04/10 02:31:41;;;;;;;66.15;49.08;;;8.20;90.90;;;;;;5058168;28;20119;-72
2023/04/10 02:34:07;;;;;;;65.93;48.58;;;8.20;90.90;;;;;;5058196;28;20079;-72
2023/04/10 02:36:35;;;;;;;66.47;48.97;;;8.20;91.00;;;;;;5041654;28;20036;-72
2023/04/10 02:39:01;;;;;;;68.13;48.80;;;8.20;91.00;;;;;;5058023;28;20051;-72
2023/04/10 02:41:26;;;;;;;69.00;49.45;;;8.20;91.00;;;;;;5057941;28;20115;-72
2023/04/10 02:43:52;;;;;;;66.38;48.67;;;8.20;91.00;;;;;;5074710;28;20497;-72
2023/04/10 02:46:17;;;;;;;66.13;48.30;;;8.20;91.00;;;;;;5075547;28;20036;-72
2023/04/10 02:48:43;;;;;;;69.95;49.40;;;8.20;90.90;;;;;;5041354;28;20564;-72
2023/04/10 02:51:09;;;;;;;68.60;49.97;;;8.20;90.90;;;;;;5074777;28;20408;-72
2023/04/10 02:53:35;;;;;;;67.40;48.67;;;8.20;90.90;;;;;;5074504;28;20041;-72
2023/04/10 02:56:01;;;;;;;66.18;47.95;;;8.20;90.90;;;;;;5057922;28;20044;-72
2023/04/10 02:58:29;;;;;;;65.57;48.88;;;8.20;90.90;;;;;;5057775;28;20049;-72
2023/04/10 03:00:55;;;;;;;64.88;47.42;;;8.20;90.90;;;;;;5074294;28;20050;-72
2023/04/10 03:03:21;;;;;;;65.07;47.30;;;8.20;90.90;;;;;;5057848;28;20041;-72
2023/04/10 03:05:48;;;;;;;67.68;48.33;;;8.20;90.90;;;;;;5074546;28;20051;-72
2023/04/10 03:08:16;;;;;;;65.25;47.60;;;8.20;90.90;;;;;;5057586;28;20063;-72
2023/04/10 03:10:49;;;;;;;64.75;47.28;;;8.20;90.90;;;;;;5057465;28;20076;-72
2023/04/10 03:13:15;;;;;;;61.90;45.17;;;8.20;90.70;;;;;;5074490;28;20044;-73
2023/04/10 03:15:41;;;;;;;62.63;46.33;;;8.20;90.70;;;;;;5074386;28;20132;-72
2023/04/10 03:18:08;;;;;;;64.60;47.55;;;8.20;90.70;;;;;;5074110;28;20513;-73
2023/04/10 03:20:36;;;;;;;64.82;46.70;;;8.20;90.60;;;;;;5057416;28;20123;-73
2023/04/10 03:23:02;;;;;;;65.13;47.88;;;8.20;90.60;;;;;;5057359;28;20055;-73
2023/04/10 03:25:28;;;;;;;61.75;45.40;;;8.20;91.00;;;;;;5073941;28;20396;-72
2023/04/10 03:27:54;;;;;;;63.58;46.72;;;8.20;90.70;;;;;;5073905;28;20036;-72
2023/04/10 03:30:20;;;;;;;62.15;45.97;;;8.20;90.70;;;;;;5057081;28;20089;-73
2023/04/10 03:32:45;;;;;;;64.78;47.42;;;8.20;90.70;;;;;;5073857;28;20044;-72
2023/04/10 03:35:11;;;;;;;61.55;45.95;;;8.20;90.70;;;;;;5074397;28;20037;-72
2023/04/10 03:37:37;;;;;;;60.97;45.70;;;8.20;90.70;;;;;;5057103;28;20454;-72
2023/04/10 03:40:07;;;;;;;65.80;46.65;;;8.20;90.70;;;;;;5073475;28;20056;-72
2023/04/10 03:42:34;;;;;;;63.50;46.47;;;8.20;90.80;;;;;;5073845;28;20041;-72
2023/04/10 03:45:03;;;;;;;65.63;46.97;;;8.20;90.80;;;;;;5073572;28;20037;-72
2023/04/10 03:47:31;;;;;;;65.07;46.45;;;8.20;90.90;;;;;;5056919;28;20044;-72
2023/04/10 03:50:00;;;;;;;60.88;46.13;;;8.10;90.90;;;;;;5073430;28;20119;-72
2023/04/10 03:52:27;;;;;;;64.35;46.67;;;8.10;90.90;;;;;;5057042;28;20048;-72
2023/04/10 03:54:53;;;;;;;63.85;45.92;;;8.10;91.00;;;;;;5073363;28;20501;-72
2023/04/10 03:57:20;;;;;;;65.05;47.72;;;8.10;91.10;;;;;;5056597;28;20114;-72
2023/04/10 03:59:46;;;;;;;66.13;46.97;;;8.10;91.00;;;;;;5056460;28;20041;-72
2023/04/10 04:02:12;;;;;;;63.28;46.28;;;8.10;91.00;;;;;;5073214;28;20123;-73
2023/04/10 04:04:38;;;;;;;62.65;47.30;;;8.20;91.20;;;;;;5073459;28;20115;-73
2023/04/10 04:07:04;;;;;;;62.72;46.25;;;8.20;91.20;;;;;;5056191;28;20492;-73
2023/04/10 04:09:29;;;;;;;63.25;47.63;;;8.20;91.20;;;;;;5073367;28;20048;-73
2023/04/10 04:11:55;;;;;;;62.67;46.05;;;8.20;91.20;;;;;;5056316;28;20073;-72
2023/04/10 04:14:22;;;;;;;61.97;45.97;;;8.20;91.30;;;;;;5072990;28;20048;-72
2023/04/10 04:16:47;;;;;;;63.65;47.13;;;8.20;91.30;;;;;;5072916;28;20071;-73
2023/04/10 04:19:13;;;;;;;62.05;46.40;;;8.20;91.30;;;;;;5072930;28;20078;-73
2023/04/10 04:21:39;;;;;;;65.35;47.45;;;8.20;91.60;;;;;;5056070;28;20044;-73
2023/04/10 04:24:04;;;;;;;61.47;44.65;;;8.20;91.30;;;;;;5072789;28;20037;-73
2023/04/10 04:26:30;;;;;;;63.38;45.22;;;8.20;91.40;;;;;;5055980;28;20044;-72
2023/04/10 04:28:56;;;;;;;64.45;45.88;;;8.20;91.30;;;;;;5056104;28;20041;-72
2023/04/10 04:31:23;;;;;;;64.13;46.33;;;8.30;91.30;;;;;;5055978;28;20040;-72
2023/04/10 04:33:48;;;;;;;61.95;46.00;;;8.20;91.40;;;;;;5072592;28;20052;-72
2023/04/10 04:36:14;;;;;;;59.90;43.92;;;8.30;91.40;;;;;;5055937;28;20044;-72
2023/04/10 04:38:39;;;;;;;59.55;43.60;;;8.20;91.50;;;;;;5072545;28;20052;-72
2023/04/10 04:41:05;;;;;;;61.13;44.80;;;8.20;91.50;;;;;;5055559;28;20044;-73
2023/04/10 04:43:31;;;;;;;60.38;45.67;;;8.20;91.50;;;;;;5072653;28;20045;-72
2023/04/10 04:45:56;;;;;;;61.13;45.83;;;8.20;91.40;;;;;;5055731;28;20520;-72
2023/04/10 04:48:22;;;;;;;62.47;46.13;;;8.30;91.50;;;;;;5072378;28;20029;-72
2023/04/10 04:50:47;;;;;;;59.10;44.28;;;8.30;91.50;;;;;;5055675;28;20169;-72
2023/04/10 04:53:13;;;;;;;65.05;44.67;;;8.20;91.60;;;;;;5072304;28;20040;-72
2023/04/10 04:55:39;;;;;;;59.72;44.20;;;8.20;91.50;;;;;;5072499;28;20087;-72
2023/04/10 04:58:05;;;;;;;56.90;42.67;;;8.20;91.40;;;;;;5072442;28;20493;-72
2023/04/10 05:00:30;;;;;;;60.83;44.92;;;8.20;91.40;;;;;;5072061;28;20094;-72
2023/04/10 05:02:56;;;;;;;58.47;42.33;;;8.30;91.40;;;;;;5055649;28;20086;-73
2023/04/10 05:05:22;;;;;;;58.90;43.97;;;8.20;91.80;;;;;;5055495;28;20041;-73
2023/04/10 05:07:47;;;;;;;64.53;44.50;;;8.20;91.50;;;;;;5072140;28;20037;-73
2023/04/10 05:10:14;;;;;;;60.28;44.47;;;8.20;91.50;;;;;;5071982;28;20040;-73
2023/04/10 05:12:41;;;;;;;61.85;45.55;;;8.10;91.50;;;;;;5072019;28;20048;-73
2023/04/10 05:15:07;;;;;;;59.92;43.45;;;8.20;91.60;;;;;;5071956;28;20090;-73
2023/04/10 05:17:33;;;;;;;57.65;42.22;;;8.20;91.60;;;;;;5055247;28;20036;-72
2023/04/10 05:19:59;;;;;;;55.88;42.53;;;8.20;91.70;;;;;;5054154;28;20119;-71
2023/04/10 05:22:26;;;;;;;58.58;42.22;;;8.20;91.70;;;;;;5072184;28;20036;-71
2023/04/10 05:24:53;;;;;;;56.58;41.97;;;8.20;91.70;;;;;;5071922;28;20036;-71
2023/04/10 05:27:19;;;;;;;59.55;42.20;;;8.20;91.70;;;;;;5072111;28;20033;-71
2023/04/10 05:29:45;;;;;;;59.53;43.17;;;8.20;91.80;;;;;;5073033;28;20450;-71
2023/04/10 05:32:10;;;;;;;56.97;41.50;;;8.20;91.80;;;;;;5055339;28;20036;-71
2023/04/10 05:34:36;;;;;;;57.95;41.03;;;8.20;91.80;;;;;;5071800;28;20110;-71
2023/04/10 05:37:01;;;;;;;53.08;40.05;;;8.20;91.90;;;;;;5038510;28;20489;-71
2023/04/10 05:39:27;;;;;;;52.50;39.15;;;8.20;91.80;;;;;;5055203;28;20114;-71
2023/04/10 05:41:52;;;;;;;52.70;40.05;;;8.20;91.80;;;;;;5071599;28;20485;-71
2023/04/10 05:44:18;;;;;;;55.10;40.63;;;8.20;91.80;;;;;;5055279;28;20032;-71
2023/04/10 05:46:43;;;;;;;56.42;40.00;;;8.20;91.80;;;;;;5055009;28;20083;-71
2023/04/10 05:49:09;;;;;;;53.25;38.45;;;8.20;91.80;;;;;;5054978;28;20044;-71
2023/04/10 05:51:35;;;;;;;54.70;40.83;;;8.30;91.90;;;;;;5054885;28;20037;-71
2023/04/10 05:54:00;;;;;;;55.20;39.72;;;8.30;91.90;;;;;;5055172;28;20052;-71
2023/04/10 05:56:26;;;;;;;55.80;39.72;;;8.30;91.90;;;;;;5072876;28;20044;-71
2023/04/10 05:58:51;;;;;;;55.05;39.55;;;8.30;91.90;;;;;;5071809;28;20036;-71
2023/04/10 06:01:17;;;;;;;53.78;40.55;;;8.40;92.00;;;;;;5071410;28;20052;-71
2023/04/10 06:03:42;;;;;;;54.05;40.05;;;8.40;92.00;;;;;;5071501;28;20040;-71
2023/04/10 06:06:08;;;;;;;55.28;40.00;;;8.40;92.00;;;;;;5073014;28;20036;-71
2023/04/10 06:08:34;;;;;;;53.70;39.70;;;8.40;92.10;;;;;;5055068;28;20051;-71
2023/04/10 06:10:59;;;;;;;54.38;39.80;;;8.40;92.00;;;;;;5071432;28;20132;-71
2023/04/10 06:13:26;;;;;;;56.60;41.63;;;8.40;92.00;;;;;;5054769;28;20044;-71
2023/04/10 06:15:52;;;;;;;56.25;40.25;;;8.40;91.90;;;;;;5054697;28;20059;-71
2023/04/10 06:18:17;;;;;;;52.58;40.15;;;8.50;92.30;;;;;;5071428;28;20044;-71
2023/04/10 06:20:43;;;;;;;56.42;40.13;;;8.50;91.90;;;;;;5054635;28;20040;-71
2023/04/10 06:23:10;;;;;;;58.30;42.08;;;8.50;92.00;;;;;;5071313;28;20390;-71
2023/04/10 06:25:36;;;;;;;57.28;42.17;;;8.50;91.90;;;;;;5054468;28;20072;-73
2023/04/10 06:28:01;;;;;;;54.30;39.92;;;8.60;91.90;;;;;;5054556;28;20068;-73
2023/04/10 06:30:27;;;;;;;55.97;39.38;;;8.60;91.90;;;;;;5071652;28;20044;-73
2023/04/10 06:32:53;;;;;;;53.60;39.67;;;8.60;91.90;;;;;;5058346;28;20044;-73
2023/04/10 06:35:18;;;;;;;51.83;38.13;;;8.60;91.90;;;;;;5058278;28;20130;-73
2023/04/10 06:37:44;;;;;;;52.83;38.33;;;8.70;92.00;;;;;;5058212;28;20044;-73
2023/04/10 06:40:12;;;;;;;54.15;38.67;;;8.80;91.90;;;;;;5057919;28;20039;-73
2023/04/10 06:42:38;;;;;;;51.80;38.83;;;8.80;92.00;;;;;;5075052;28;20032;-73
2023/04/10 06:45:04;;;;;;;50.83;36.90;;;8.80;92.00;;;;;;5057999;28;20412;-73
2023/04/10 06:47:30;;;;;;;49.95;37.67;;;8.90;92.10;;;;;;5057958;28;20044;-73
2023/04/10 06:49:56;;;;;;;52.70;38.47;;;8.90;92.00;;;;;;5074577;28;20041;-73
2023/04/10 06:52:22;;;;;;;51.42;37.38;;;9.00;92.00;;;;;;5057952;28;20077;-73
2023/04/10 06:54:47;;;;;;;51.00;38.60;;;9.00;92.00;;;;;;5057904;28;20039;-73
2023/04/10 06:57:13;;;;;;;49.58;36.50;;;9.10;92.00;;;;;;5058162;28;20041;-73
2023/04/10 06:59:39;;;;;;;48.78;36.05;;;9.10;91.90;;;;;;5074457;28;20040;-73
2023/04/10 07:02:05;;;;;;;49.38;35.63;;;9.20;91.80;;;;;;5057545;28;20047;-73
2023/04/10 07:04:31;;;;;;;50.97;35.72;;;9.20;91.90;;;;;;5057592;28;20044;-73
2023/04/10 07:06:56;;;;;;;48.60;35.30;;;9.20;91.70;;;;;;5075788;28;20040;-73
2023/04/10 07:09:25;;;;;;;47.58;36.17;;;9.20;91.70;;;;;;5057694;28;20070;-73
2023/04/10 07:11:51;;;;;;;47.15;35.47;;;9.30;91.70;;;;;;5057471;28;20055;-73
2023/04/10 07:14:17;;;;;;;47.38;35.25;;;9.30;91.40;;;;;;5057504;28;20045;-73
2023/04/10 07:16:42;;;;;;;48.30;36.17;;;9.40;91.40;;;;;;5074509;28;20503;-73
2023/04/10 07:19:08;;;;;;;42.95;32.97;;;9.40;91.40;;;;;;5075572;28;20033;-73
2023/04/10 07:21:34;;;;;;;45.15;33.92;;;9.50;91.40;;;;;;5075741;28;20045;-73
2023/04/10 07:24:00;;;;;;;46.80;35.35;;;9.60;91.30;;;;;;5074131;28;20532;-73
2023/04/10 07:26:25;;;;;;;46.00;33.97;;;9.70;91.40;;;;;;5074252;28;20060;-73
2023/04/10 07:28:51;;;;;;;42.78;32.80;;;9.70;91.30;;;;;;5057269;28;20040;-73
2023/04/10 07:31:17;;;;;;;44.15;32.63;;;9.80;91.20;;;;;;5057200;28;20046;-73
2023/04/10 07:33:45;;;;;;;43.78;31.90;;;9.90;91.10;;;;;;5074096;28;20071;-73
2023/04/10 07:36:11;;;;;;;43.17;32.08;;;10.00;91.00;;;;;;5073859;28;20040;-73
2023/04/10 07:38:37;;;;;;;47.25;32.28;;;10.10;90.90;;;;;;5074007;28;20044;-73
2023/04/10 07:41:04;;;;;;;41.58;31.30;;;10.20;91.30;;;;;;5073619;28;20081;-73
2023/04/10 07:43:30;;;;;;;42.00;31.88;;;10.40;90.90;;;;;;5072703;28;20040;-73
2023/04/10 07:45:56;;;;;;;39.88;30.35;;;10.40;90.90;;;;;;5073571;28;20492;-73
2023/04/10 07:48:22;;;;;;;40.65;29.48;;;10.60;90.90;;;;;;5073804;28;20064;-74
2023/04/10 07:50:47;;;;;;;39.35;29.42;;;10.70;90.60;;;;;;5057058;28;20504;-74
2023/04/10 07:53:13;;;;;;;41.60;30.38;;;10.80;90.50;;;;;;5057039;28;20036;-73
2023/04/10 07:55:44;;;;;;;40.58;29.27;;;11.00;90.40;;;;;;5073375;28;20435;-74
2023/04/10 07:58:10;;;;;;;37.63;28.17;;;11.20;90.10;;;;;;5073635;28;20126;-76
2023/04/10 08:00:36;;;;;;;35.95;27.65;;;11.30;89.80;;;;;;5073134;28;20489;-73
2023/04/10 08:03:03;;;;;;;35.88;27.30;;;11.50;89.20;;;;;;5073586;28;20032;-73
2023/04/10 08:05:28;;;;;;;33.35;25.15;;;11.70;88.80;;;;;;5073229;28;20040;-74
2023/04/10 08:07:54;;;;;;;31.95;25.05;;;11.80;87.80;;;;;;5056429;28;20040;-74
2023/04/10 08:10:20;;;;;;;33.28;25.02;;;12.00;87.10;;;;;;5056371;28;20068;-74
2023/04/10 08:12:45;;;;;;;32.03;24.48;;;12.10;86.20;;;;;;5056452;28;20040;-74
2023/04/10 08:15:11;;;;;;;29.13;22.70;;;12.30;85.90;;;;;;5056315;28;20040;-73
2023/04/10 08:17:37;;;;;;;31.98;23.65;;;12.40;85.40;;;;;;5056348;28;20040;-73
2023/04/10 08:20:03;;;;;;;29.85;23.73;;;12.50;85.40;;;;;;5072783;28;20044;-73
2023/04/10 08:22:29;;;;;;;26.55;19.77;;;12.60;84.90;;;;;;5072882;28;20036;-73
2023/04/10 08:24:55;;;;;;;23.67;18.83;;;12.70;84.40;;;;;;5072804;28;20043;-73
2023/04/10 08:27:21;;;;;;;23.33;17.95;;;12.80;83.30;;;;;;5072752;28;20033;-73
2023/04/10 08:29:46;;;;;;;26.20;17.67;;;12.90;82.30;;;;;;5072872;28;20039;-73
2023/04/10 08:32:12;;;;;;;23.42;18.13;;;12.90;82.10;;;;;;5056061;28;20047;-74
2023/04/10 08:34:37;;;;;;;20.65;16.58;;;13.00;81.50;;;;;;5056043;28;20190;-73
2023/04/10 08:37:08;;;;;;;22.65;17.17;;;13.00;80.70;;;;;;5039363;28;20032;-73
2023/04/10 08:39:37;;;;;;;20.98;16.52;;;13.20;81.60;;;;;;5072350;28;20045;-73
2023/04/10 08:42:05;;;;;;;21.50;17.08;;;13.30;80.40;;;;;;5072732;28;20102;-73
2023/04/10 08:44:30;;;;;;;20.45;16.48;;;13.40;79.80;;;;;;5072467;28;20509;-74
2023/04/10 08:47:00;;;;;;;29.40;17.73;;;13.50;80.50;;;;;;5056032;28;20052;-74
2023/04/10 08:49:50;;;;;;;27.80;17.40;;;13.60;79.40;;;;;;5072235;28;20083;-74
2023/04/10 08:52:21;;;;;;;19.23;15.75;;;13.70;78.50;;;;;;5072426;28;20119;-73
2023/04/10 08:54:49;;;;;;;17.52;14.70;;;13.80;78.60;;;;;;5072142;28;20041;-73
2023/04/10 08:57:19;;;;;;;21.08;15.38;;;13.90;77.80;;;;;;5055823;28;20047;-73
2023/04/10 08:59:50;;;;;;;55.42;17.25;;;14.00;77.30;;;;;;5072093;28;20051;-73
2023/04/10 09:02:16;;;;;;;19.70;14.30;;;14.10;75.60;;;;;;5055446;28;20040;-73
2023/04/10 09:04:53;;;;;;;20.90;14.65;;;14.20;75.80;;;;;;5055479;28;20079;-73
2023/04/10 09:07:18;;;;;;;19.30;15.10;;;14.30;75.40;;;;;;5055577;28;20048;-73
2023/04/10 09:09:44;;;;;;;20.38;15.35;;;14.40;75.40;;;;;;5055412;28;20119;-73
2023/04/10 09:12:12;;;;;;;19.40;13.90;;;14.50;75.10;;;;;;5055426;28;20040;-73
2023/04/10 09:14:40;;;;;;;16.00;13.10;;;14.50;75.30;;;;;;5055457;28;20040;-73
2023/04/10 09:17:20;;;;;;;19.85;12.65;;;14.70;74.30;;;;;;5055291;28;20123;-73
2023/04/10 09:19:48;;;;;;;16.70;12.30;;;14.80;73.30;;;;;;5071985;28;20094;-73
2023/04/10 09:22:15;;;;;;;18.40;12.50;;;14.90;73.30;;;;;;5071691;28;20053;-74
2023/04/10 09:24:46;;;;;;;17.58;13.73;;;14.90;72.80;;;;;;5071925;28;20086;-73
2023/04/10 09:27:37;;;;;;;13.35;11.48;;;14.90;72.40;;;;;;5055312;28;20374;-74
2023/04/10 09:30:03;;;;;;;15.02;11.68;;;15.00;72.30;;;;;;5055191;28;20044;-73
2023/04/10 09:32:43;;;;;;;15.40;12.20;;;15.00;72.20;;;;;;5071828;28;20555;-74
2023/04/10 09:35:14;;;;;;;23.23;12.57;;;15.10;71.90;;;;;;5071763;28;20068;-74
2023/04/10 09:37:41;;;;;;;20.98;12.05;;;15.10;71.80;;;;;;5055150;28;20040;-74
2023/04/10 09:40:20;;;;;;;14.05;11.45;;;15.20;71.70;;;;;;5071547;28;20034;-73
2023/04/10 09:42:45;;;;;;;17.02;11.30;;;15.10;71.20;;;;;;5055077;28;20032;-74
2023/04/10 09:45:11;;;;;;;19.00;11.60;;;15.10;71.10;;;;;;5073410;28;20036;-73
2023/04/10 09:47:37;;;;;;;15.70;10.82;;;15.10;70.50;;;;;;5072991;28;20044;-74
2023/04/10 09:50:03;;;;;;;13.13;11.18;;;15.10;70.30;;;;;;5071595;28;20040;-73
2023/04/10 09:52:33;;;;;;;13.65;11.32;;;15.10;70.00;;;;;;5054896;28;20051;-73
2023/04/10 09:55:02;;;;;;;13.63;10.93;;;15.10;69.90;;;;;;5071866;28;20049;-73
2023/04/10 09:57:31;;;;;;;13.32;10.50;;;15.20;70.40;;;;;;5071587;28;20527;-73
2023/04/10 10:00:00;;;;;;;15.00;10.88;;;15.20;70.20;;;;;;5054764;28;20036;-73
2023/04/10 10:02:29;;;;;;;14.57;9.98;;;15.20;70.40;;;;;;5071551;28;20048;-74
2023/04/10 10:04:55;;;;;;;14.02;10.38;;;15.30;70.20;;;;;;5055028;28;20162;-73
2023/04/10 10:07:23;;;;;;;13.68;10.68;;;15.30;69.90;;;;;;5058409;28;20060;-74
2023/04/10 10:09:50;;;;;;;12.50;9.50;;;15.40;70.30;;;;;;5075311;28;20123;-73
2023/04/10 10:12:23;;;;;;;10.35;8.88;;;15.50;69.80;;;;;;5058957;28;20036;-73
2023/04/10 10:15:07;;;;;;;13.25;8.85;;;15.60;69.90;;;;;;5058704;28;20098;-73
2023/04/10 10:18:02;;;;;;;8.90;7.80;;;15.70;69.80;;;;;;5075282;28;20045;-73
2023/04/10 10:20:31;;;;;;;30.42;14.35;;;15.60;69.30;;;;;;5075099;28;20390;-73
2023/04/10 10:22:57;;;;;;;30.67;15.70;;;15.70;70.10;;;;;;5058815;28;20047;-73
2023/04/10 10:25:25;;;;;;;24.40;12.88;;;15.70;69.50;;;;;;5058454;28;20126;-73
2023/04/10 10:27:52;;;;;;;14.93;9.80;;;15.60;70.10;;;;;;5058438;28;20052;-73
2023/04/10 10:30:19;;;;;;;9.70;7.88;;;15.40;68.60;;;;;;5076180;28;20428;-73
2023/04/10 10:32:46;;;;;;;10.07;7.57;;;15.30;68.00;;;;;;5058352;28;20045;-73
2023/04/10 10:35:12;;;;;;;19.73;11.05;;;15.20;68.70;;;;;;5074895;28;20047;-73
2023/04/10 10:37:39;;;;;;;9.00;8.02;;;15.10;68.30;;;;;;5074897;28;20036;-74
2023/04/10 10:40:25;;;;;;;32.72;12.43;;;15.00;69.40;;;;;;5058113;28;20504;-73
2023/04/10 10:43:13;;;;;;;21.02;9.55;;;15.00;70.50;;;;;;5058148;28;20055;-73
2023/04/10 10:45:38;;;;;;;10.15;7.05;;;15.00;69.70;;;;;;5074739;28;20044;-73
2023/04/10 10:48:05;;;;;;;7.93;6.35;;;14.90;69.80;;;;;;5074707;28;20033;-73
2023/04/10 10:50:57;;;;;;;11.65;7.10;;;15.00;69.80;;;;;;5074577;28;20044;-73
2023/04/10 10:53:42;;;;;;;8.77;7.30;;;15.00;69.00;;;;;;5074841;28;20115;-73
2023/04/10 10:56:17;;;;;;;9.18;6.70;;;14.90;68.90;;;;;;5057922;28;20041;-73
2023/04/10 10:58:47;;;;;;;8.32;6.85;;;14.90;69.50;;;;;;5074797;28;20055;-73
2023/04/10 11:01:13;;;;;;;7.32;6.07;;;14.90;69.70;;;;;;5057618;28;20041;-73
2023/04/10 11:03:39;;;;;;;8.23;6.30;;;15.00;69.00;;;;;;5074758;28;20028;-73
2023/04/10 11:06:08;;;;;;;6.95;6.05;;;14.90;68.90;;;;;;5074401;28;20374;-73
2023/04/10 11:08:45;;;;;;;8.43;6.72;;;15.00;69.50;;;;;;5057637;28;20041;-73
2023/04/10 11:11:11;;;;;;;8.45;6.65;;;15.00;69.30;;;;;;5057596;28;20059;-73
2023/04/10 11:13:52;;;;;;;9.25;6.05;;;15.00;68.90;;;;;;5057464;28;20045;-72
2023/04/10 11:16:25;;;;;;;8.38;6.47;;;15.00;68.70;;;;;;5074497;28;20098;-73
2023/04/10 11:18:50;;;;;;;7.25;6.03;;;15.10;69.10;;;;;;5074428;28;20443;-73
2023/04/10 11:21:18;;;;;;;17.65;7.75;;;15.20;69.60;;;;;;5074116;28;20044;-73
2023/04/10 11:23:52;;;;;;;30.75;10.65;;;15.30;69.50;;;;;;5074051;28;20599;-73
2023/04/10 11:26:33;;;;;;;11.65;6.80;;;15.30;70.50;;;;;;5057777;28;20131;-73
2023/04/10 11:29:28;;;;;;;7.35;5.57;;;15.20;69.90;;;;;;5074197;28;20123;-73
2023/04/10 11:32:02;;;;;;;11.60;5.75;;;15.30;69.00;;;;;;5050023;28;20050;-73
2023/04/10 11:34:32;;;;;;;7.57;5.32;;;15.20;69.60;;;;;;5057185;28;20044;-73
2023/04/10 11:37:01;;;;;;;6.43;5.07;;;15.20;69.00;;;;;;5073725;28;20423;-73
2023/04/10 11:39:28;;;;;;;7.00;4.63;;;15.20;68.80;;;;;;5057021;28;20045;-73
2023/04/10 11:41:56;;;;;;;6.10;4.93;;;15.20;69.10;;;;;;5073453;28;20052;-71
2023/04/10 11:44:25;;;;;;;6.88;4.50;;;15.20;69.10;;;;;;5056868;28;20051;-71
2023/04/10 11:46:51;;;;;;;14.18;7.65;;;15.30;69.40;;;;;;5073525;28;20036;-71
2023/04/10 11:49:22;;;;;;;9.02;5.68;;;15.30;68.60;;;;;;5073499;28;20037;-71
2023/04/10 11:51:49;;;;;;;7.45;4.18;;;15.30;67.80;;;;;;5056687;28;20044;-71
2023/04/10 11:54:17;;;;;;;10.60;7.32;;;15.30;68.00;;;;;;5056711;28;20036;-71
2023/04/10 11:57:04;;;;;;;29.83;11.40;;;15.40;68.60;;;;;;5056671;28;20041;-71
2023/04/10 11:59:31;;;;;;;6.90;4.78;;;15.50;69.50;;;;;;5056577;28;20060;-71
2023/04/10 12:02:14;;;;;;;8.07;4.70;;;15.70;68.80;;;;;;5056494;28;20032;-71
2023/04/10 12:04:41;;;;;;;5.13;4.03;;;15.90;68.10;;;;;;5056834;28;20044;-71
2023/04/10 12:07:08;;;;;;;6.40;4.28;;;16.00;67.60;;;;;;5073139;28;20039;-71
2023/04/10 12:09:33;;;;;;;6.05;4.43;;;16.10;67.10;;;;;;5073066;28;20115;-71
2023/04/10 12:12:02;;;;;;;6.90;4.60;;;16.20;67.10;;;;;;5072983;28;20175;-71
2023/04/10 12:14:35;;;;;;;17.85;6.82;;;16.20;67.10;;;;;;5056386;28;20049;-71
2023/04/10 12:17:01;;;;;;;;;;;16.20;66.70;;;;;;5073361;28;20055;-70
2023/04/10 12:19:27;;;;;;;7.10;4.07;;;16.40;67.50;;;;;;5072936;28;19916;-71
2023/04/10 12:21:54;;;;;;;6.40;4.22;;;16.60;67.50;;;;;;5072671;28;20500;-71
2023/04/10 12:24:41;;;;;;;6.47;4.70;;;16.80;67.50;;;;;;5072771;28;20036;-71
2023/04/10 12:27:17;;;;;;;6.80;4.78;;;16.90;67.70;;;;;;5072717;28;20573;-71
2023/04/10 12:29:47;;;;;;;8.70;4.68;;;17.00;67.60;;;;;;5055461;28;20036;-71
2023/04/10 12:32:13;;;;;;;6.40;4.22;;;17.10;67.40;;;;;;5072883;28;20389;-71
2023/04/10 12:34:39;;;;;;;6.07;4.65;;;17.00;66.10;;;;;;5056072;28;20135;-71
2023/04/10 12:37:05;;;;;;;7.30;4.70;;;16.90;67.40;;;;;;5056111;28;20123;-71
2023/04/10 12:39:31;;;;;;;5.80;4.45;;;16.80;66.60;;;;;;5055697;28;20056;-70
2023/04/10 12:42:38;;;;;;;6.22;5.05;;;16.60;66.60;;;;;;5072324;28;20119;-71